createdAt,value
2022-10-31T00:01:30.603Z,9.52
2022-10-31T00:03:57.685Z,7.40
2022-10-31T00:06:25.311Z,7.82
2022-10-31T00:09:04.372Z,8.27
2022-10-31T00:11:31.569Z,6.88
2022-10-31T00:14:02.216Z,6.90
2022-10-31T00:16:30.429Z,8.70
2022-10-31T00:19:01.564Z,9.10
2022-10-31T00:21:29.785Z,8.73
2022-10-31T00:23:57.707Z,6.65
2022-10-31T00:26:24.713Z,8.05
2022-10-31T00:28:52.092Z,10.73
2022-10-31T00:31:19.285Z,7.38
2022-10-31T00:33:46.217Z,7.88
2022-10-31T00:36:19.221Z,7.82
2022-10-31T00:39:15.329Z,6.72
2022-10-31T00:41:42.866Z,8.27
2022-10-31T00:44:09.809Z,7.90
2022-10-31T00:46:36.842Z,7.25
2022-10-31T00:49:03.803Z,8.82
2022-10-31T00:51:30.727Z,7.70
2022-10-31T00:53:57.710Z,8.48
2022-10-31T00:56:24.686Z,7.82
2022-10-31T00:58:51.650Z,7.72
2022-10-31T01:01:18.744Z,7.53
2022-10-31T01:03:45.766Z,6.80
2022-10-31T01:06:14.486Z,9.30
2022-10-31T01:08:41.974Z,8.25
2022-10-31T01:11:15.422Z,9.23
2022-10-31T01:13:43.824Z,8.00
2022-10-31T01:16:16.257Z,8.38
2022-10-31T01:18:43.457Z,9.82
2022-10-31T01:21:21.433Z,8.63
2022-10-31T01:23:48.449Z,8.15
2022-10-31T01:26:25.382Z,9.57
2022-10-31T01:29:07.772Z,8.00
2022-10-31T01:31:40.322Z,7.03
2022-10-31T01:34:07.866Z,7.90
2022-10-31T01:36:37.919Z,6.97
2022-10-31T01:39:09.623Z,8.87
2022-10-31T01:41:44.103Z,7.63
2022-10-31T01:44:17.101Z,6.70
2022-10-31T01:46:52.663Z,7.32
2022-10-31T01:49:29.222Z,7.13
2022-10-31T01:52:04.872Z,7.53
2022-10-31T01:54:38.985Z,7.80
2022-10-31T01:57:09.696Z,6.72
2022-10-31T01:59:42.858Z,8.57
2022-10-31T02:02:10.361Z,8.02
2022-10-31T02:04:39.265Z,7.45
2022-10-31T02:07:17.108Z,8.43
2022-10-31T02:09:46.013Z,9.15
2022-10-31T02:12:14.286Z,8.30
2022-10-31T02:14:42.468Z,8.07
2022-10-31T02:17:10.019Z,8.48
2022-10-31T02:19:39.809Z,8.75
2022-10-31T02:22:56.922Z,8.30
2022-10-31T02:26:15.452Z,6.80
2022-10-31T02:29:14.116Z,8.10
2022-10-31T02:32:04.309Z,7.13
2022-10-31T02:35:12.545Z,6.35
2022-10-31T02:37:52.254Z,9.27
2022-10-31T02:40:40.626Z,7.05
2022-10-31T02:43:22.382Z,8.35
2022-10-31T02:46:20.276Z,8.82
2022-10-31T02:48:52.179Z,6.68
2022-10-31T02:51:19.703Z,8.63
2022-10-31T02:53:46.674Z,7.35
2022-10-31T02:56:17.526Z,9.10
2022-10-31T02:59:03.552Z,7.50
2022-10-31T03:02:09.623Z,8.98
2022-10-31T03:04:45.605Z,9.63
2022-10-31T03:07:30.006Z,9.82
2022-10-31T03:10:12.806Z,9.23
2022-10-31T03:13:00.763Z,7.00
2022-10-31T03:15:34.337Z,8.05
2022-10-31T03:18:14.147Z,6.95
2022-10-31T03:20:47.889Z,8.43
2022-10-31T03:23:20.724Z,6.72
2022-10-31T03:25:49.465Z,7.45
2022-10-31T03:28:22.887Z,10.15
2022-10-31T03:30:52.475Z,8.88
2022-10-31T03:33:27.122Z,9.60
2022-10-31T03:35:58.379Z,9.43
2022-10-31T03:38:26.091Z,8.65
2022-10-31T03:40:55.769Z,7.97
2022-10-31T03:43:31.215Z,10.85
2022-10-31T03:45:58.788Z,8.15
2022-10-31T03:48:26.635Z,7.68
2022-10-31T03:51:16.386Z,7.78
2022-10-31T03:53:56.828Z,8.32
2022-10-31T03:56:42.785Z,6.15
2022-10-31T03:59:21.636Z,6.78
2022-10-31T04:01:54.494Z,6.97
2022-10-31T04:04:21.825Z,7.07
2022-10-31T04:06:51.350Z,6.70
2022-10-31T04:09:20.454Z,8.70
2022-10-31T04:11:54.795Z,5.65
2022-10-31T04:14:26.226Z,6.85
2022-10-31T04:16:53.407Z,6.35
2022-10-31T04:19:20.472Z,7.60
2022-10-31T04:21:47.398Z,6.03
2022-10-31T04:24:14.352Z,5.78
2022-10-31T04:26:41.309Z,7.20
2022-10-31T04:29:08.240Z,6.60
2022-10-31T04:31:35.277Z,7.05
2022-10-31T04:34:02.221Z,5.45
2022-10-31T04:36:29.165Z,4.65
2022-10-31T04:38:56.231Z,5.80
2022-10-31T04:41:23.225Z,4.85
2022-10-31T04:43:50.177Z,6.30
2022-10-31T04:46:17.189Z,4.35
2022-10-31T04:48:44.240Z,5.07
2022-10-31T04:51:11.189Z,4.22
2022-10-31T04:53:38.964Z,6.45
2022-10-31T04:56:06.412Z,5.30
2022-10-31T04:58:33.344Z,5.55
2022-10-31T05:01:00.328Z,4.22
2022-10-31T05:03:27.392Z,6.20
2022-10-31T05:05:54.385Z,4.97
2022-10-31T05:08:21.404Z,6.53
2022-10-31T05:10:48.485Z,4.05
2022-10-31T05:13:16.520Z,3.92
2022-10-31T05:15:43.588Z,4.35
2022-10-31T05:18:10.644Z,4.40
2022-10-31T05:20:37.776Z,4.43
2022-10-31T05:23:04.733Z,4.68
2022-10-31T05:25:31.788Z,5.60
2022-10-31T05:27:59.131Z,5.13
2022-10-31T05:30:32.461Z,6.50
2022-10-31T05:33:00.187Z,5.70
2022-10-31T05:35:33.433Z,4.40
2022-10-31T05:38:00.931Z,5.88
2022-10-31T05:40:29.054Z,5.03
2022-10-31T05:42:59.775Z,4.55
2022-10-31T05:45:27.224Z,5.32
2022-10-31T05:48:02.282Z,6.03
2022-10-31T05:50:32.110Z,4.82
2022-10-31T05:53:05.395Z,5.77
2022-10-31T05:55:33.304Z,6.15
2022-10-31T05:58:00.610Z,6.78
2022-10-31T06:00:28.815Z,7.07
2022-10-31T06:03:00.980Z,7.03
2022-10-31T06:05:29.317Z,8.27
2022-10-31T06:07:57.070Z,6.55
2022-10-31T06:10:24.974Z,8.32
2022-10-31T06:12:52.027Z,6.75
2022-10-31T06:15:23.695Z,8.30
2022-10-31T06:18:03.350Z,6.97
2022-10-31T06:20:31.308Z,7.45
2022-10-31T06:22:58.859Z,9.38
2022-10-31T06:25:26.224Z,7.00
2022-10-31T06:27:53.401Z,7.57
2022-10-31T06:30:20.413Z,6.13
2022-10-31T06:32:47.530Z,6.15
2022-10-31T06:35:14.654Z,7.00
2022-10-31T06:37:43.382Z,6.78
2022-10-31T06:40:12.820Z,7.00
2022-10-31T06:42:39.769Z,7.38
2022-10-31T06:45:07.419Z,6.53
2022-10-31T06:47:41.453Z,8.32
2022-10-31T06:50:12.927Z,3.78
2022-10-31T06:52:39.856Z,2.83
2022-10-31T06:55:07.153Z,2.63
2022-10-31T06:57:34.154Z,2.58
2022-10-31T07:00:01.080Z,2.22
2022-10-31T07:02:28.091Z,2.28
2022-10-31T07:04:55.036Z,1.40
2022-10-31T07:07:22.688Z,1.40
2022-10-31T07:09:49.625Z,1.60
2022-10-31T07:12:17.818Z,1.85
2022-10-31T07:14:44.717Z,1.77
2022-10-31T07:17:11.772Z,2.90
2022-10-31T07:19:38.705Z,1.48
2022-10-31T07:22:05.668Z,1.20
2022-10-31T07:24:32.669Z,1.98
2022-10-31T07:29:31.428Z,1.40
2022-10-31T07:31:58.362Z,1.90
2022-10-31T07:34:25.293Z,1.15
2022-10-31T07:36:53.011Z,2.10
2022-10-31T07:39:19.928Z,1.58
2022-10-31T07:41:46.862Z,2.03
2022-10-31T07:44:13.793Z,2.30
2022-10-31T07:46:40.753Z,1.38
2022-10-31T07:49:08.029Z,1.30
2022-10-31T07:51:34.954Z,1.13
2022-10-31T07:54:02.243Z,1.10
2022-10-31T07:56:29.239Z,1.50
2022-10-31T07:58:56.167Z,1.92
2022-10-31T08:01:23.091Z,1.85
2022-10-31T08:03:50.026Z,1.67
2022-10-31T08:06:17.008Z,1.93
2022-10-31T08:08:44.161Z,1.98
2022-10-31T08:11:11.101Z,1.93
2022-10-31T08:13:38.063Z,1.58
2022-10-31T08:16:05.783Z,1.05
2022-10-31T08:18:32.860Z,1.83
2022-10-31T08:21:00.053Z,1.38
2022-10-31T08:23:27.038Z,1.23
2022-10-31T08:25:54.017Z,1.42
2022-10-31T08:28:20.959Z,1.20
2022-10-31T08:30:48.415Z,1.13
2022-10-31T08:33:18.838Z,1.52
2022-10-31T08:35:46.333Z,1.00
2022-10-31T08:38:14.347Z,1.25
2022-10-31T08:40:41.907Z,1.58
2022-10-31T08:43:16.735Z,2.20
2022-10-31T08:45:45.657Z,1.97
2022-10-31T08:48:17.963Z,1.50
2022-10-31T08:50:46.190Z,1.83
2022-10-31T08:53:16.746Z,1.90
2022-10-31T08:55:46.324Z,1.20
2022-10-31T08:58:20.841Z,1.38
2022-10-31T09:00:51.887Z,1.33
2022-10-31T09:03:25.812Z,1.20
2022-10-31T09:05:58.105Z,1.10
2022-10-31T09:08:25.665Z,1.15
2022-10-31T09:10:53.100Z,2.13
2022-10-31T09:13:21.919Z,1.30
2022-10-31T09:15:50.540Z,1.23
2022-10-31T09:18:22.080Z,2.17
2022-10-31T09:20:50.786Z,1.43
2022-10-31T09:23:21.798Z,1.92
2022-10-31T09:25:51.520Z,0.98
2022-10-31T09:28:22.152Z,1.25
2022-10-31T09:30:52.169Z,3.03
2022-10-31T09:33:19.902Z,1.03
2022-10-31T09:35:47.427Z,2.13
2022-10-31T09:38:17.941Z,1.67
2022-10-31T09:41:02.354Z,2.17
2022-10-31T09:43:49.813Z,1.90
2022-10-31T09:46:25.584Z,1.30
2022-10-31T09:49:39.112Z,2.27
2022-10-31T09:52:23.059Z,1.90
2022-10-31T09:55:17.507Z,2.47
2022-10-31T09:57:45.353Z,1.45
2022-10-31T10:00:23.413Z,1.73
2022-10-31T10:02:56.039Z,1.63
2022-10-31T10:05:34.230Z,1.67
2022-10-31T10:08:18.001Z,1.90
2022-10-31T10:10:56.252Z,0.88
2022-10-31T10:13:40.631Z,2.47
2022-10-31T10:16:26.992Z,1.63
2022-10-31T10:18:56.649Z,1.67
2022-10-31T10:21:49.655Z,1.85
2022-10-31T10:24:57.319Z,1.73
2022-10-31T10:27:30.043Z,1.55
2022-10-31T10:30:14.093Z,1.33
2022-10-31T10:33:03.876Z,3.30
2022-10-31T10:35:34.825Z,1.70
2022-10-31T10:38:37.468Z,1.08
2022-10-31T10:41:34.321Z,1.15
2022-10-31T10:44:02.241Z,2.20
2022-10-31T10:47:18.810Z,2.35
2022-10-31T10:49:53.829Z,1.50
2022-10-31T10:52:42.095Z,1.73
2022-10-31T10:55:17.134Z,1.35
2022-10-31T10:58:08.623Z,1.70
2022-10-31T11:00:47.858Z,1.57
2022-10-31T11:03:17.024Z,2.38
2022-10-31T11:05:59.273Z,2.70
2022-10-31T11:08:36.855Z,1.98
2022-10-31T11:11:31.727Z,2.63
2022-10-31T11:14:07.007Z,2.17
2022-10-31T11:16:41.309Z,6.45
2022-10-31T11:19:27.399Z,5.47
2022-10-31T11:21:55.308Z,1.90
2022-10-31T11:24:26.288Z,2.60
2022-10-31T11:27:03.727Z,3.38
2022-10-31T11:29:30.742Z,3.33
2022-10-31T11:32:01.042Z,2.17
2022-10-31T11:34:35.686Z,3.70
2022-10-31T11:37:13.077Z,4.13
2022-10-31T11:39:54.026Z,3.58
2022-10-31T11:42:36.008Z,3.85
2022-10-31T11:45:15.249Z,2.78
2022-10-31T11:47:59.543Z,2.28
2022-10-31T11:50:42.675Z,3.35
2022-10-31T11:53:29.291Z,1.70
2022-10-31T11:56:14.324Z,2.00
2022-10-31T11:58:42.409Z,2.60
2022-10-31T12:01:27.200Z,1.10
2022-10-31T12:04:25.157Z,1.60
2022-10-31T12:06:53.921Z,2.85
2022-10-31T12:09:35.890Z,3.78
2022-10-31T12:12:24.195Z,2.03
2022-10-31T12:15:27.891Z,2.88
2022-10-31T12:18:03.456Z,3.97
2022-10-31T12:21:24.631Z,1.98
2022-10-31T12:24:15.654Z,2.55
2022-10-31T12:27:31.269Z,3.42
2022-10-31T12:30:27.869Z,1.80
2022-10-31T12:33:32.710Z,3.70
2022-10-31T12:36:54.921Z,2.47
2022-10-31T12:39:39.345Z,2.07
2022-10-31T12:42:30.383Z,1.55
2022-10-31T12:45:05.137Z,1.58
2022-10-31T12:48:15.713Z,1.95
2022-10-31T12:51:14.825Z,4.57
2022-10-31T12:53:59.498Z,4.13
2022-10-31T12:57:02.027Z,3.38
2022-10-31T12:59:36.967Z,2.85
2022-10-31T13:02:40.100Z,3.80
2022-10-31T13:05:18.906Z,1.90
2022-10-31T13:08:14.446Z,2.47
2022-10-31T13:11:09.087Z,2.78
2022-10-31T13:13:51.072Z,3.13
2022-10-31T13:16:22.777Z,4.72
2022-10-31T13:19:08.653Z,3.72
2022-10-31T13:21:48.797Z,1.92
2022-10-31T13:24:24.653Z,2.30
2022-10-31T13:26:59.510Z,4.65
2022-10-31T13:29:55.189Z,7.63
2022-10-31T13:32:22.261Z,6.85
2022-10-31T13:34:57.114Z,3.25
2022-10-31T13:37:49.756Z,5.20
2022-10-31T13:40:47.877Z,4.65
2022-10-31T13:43:56.232Z,3.40
2022-10-31T13:46:39.514Z,6.07
2022-10-31T13:49:31.833Z,5.30
2022-10-31T13:52:13.929Z,4.75
2022-10-31T13:54:56.852Z,3.47
2022-10-31T13:57:43.163Z,4.57
2022-10-31T14:00:22.418Z,3.55
2022-10-31T14:02:52.932Z,6.05
2022-10-31T14:05:35.097Z,3.22
2022-10-31T14:08:05.930Z,3.67
2022-10-31T14:10:50.983Z,4.13
2022-10-31T14:13:38.245Z,8.35
2022-10-31T14:16:31.590Z,1.02
2022-10-31T14:19:08.069Z,3.05
2022-10-31T14:21:48.200Z,4.18
2022-10-31T14:24:23.920Z,3.87
2022-10-31T14:27:05.223Z,5.97
2022-10-31T14:29:34.873Z,4.47
2022-10-31T14:32:26.711Z,3.45
2022-10-31T14:34:57.475Z,2.85
2022-10-31T14:37:55.461Z,4.85
2022-10-31T14:43:44.417Z,4.63
2022-10-31T14:46:40.213Z,3.22
2022-10-31T14:49:28.978Z,5.70
2022-10-31T14:51:57.021Z,4.97
2022-10-31T14:54:40.121Z,3.65
2022-10-31T14:57:17.706Z,4.60
2022-10-31T15:00:05.237Z,3.47
2022-10-31T15:03:06.508Z,2.80
2022-10-31T15:05:42.162Z,5.38
2022-10-31T15:08:34.169Z,2.60
2022-10-31T15:11:11.352Z,5.63
2022-10-31T15:13:53.888Z,3.67
2022-10-31T15:16:35.393Z,5.07
2022-10-31T15:19:11.142Z,3.00
2022-10-31T15:21:44.488Z,3.13
2022-10-31T15:24:19.289Z,4.28
2022-10-31T15:26:50.087Z,7.32
2022-10-31T15:29:23.653Z,5.57
2022-10-31T15:31:52.719Z,6.97
2022-10-31T15:34:39.068Z,4.95
2022-10-31T15:37:20.150Z,1.48
2022-10-31T15:39:49.639Z,3.33
2022-10-31T15:42:28.459Z,5.70
2022-10-31T15:45:12.655Z,1.75
2022-10-31T15:47:46.335Z,1.57
2022-10-31T15:50:42.306Z,1.02
2022-10-31T15:53:33.186Z,1.80
2022-10-31T15:56:09.696Z,2.83
2022-10-31T15:58:46.549Z,2.90
2022-10-31T16:01:33.947Z,13.47
2022-10-31T16:04:12.769Z,12.00
2022-10-31T16:06:40.276Z,11.32
2022-10-31T16:09:24.625Z,11.80
2022-10-31T16:11:51.918Z,13.60
2022-10-31T16:14:25.711Z,13.20
2022-10-31T16:17:00.140Z,12.30
2022-10-31T16:19:36.010Z,12.68
2022-10-31T16:22:14.329Z,12.05
2022-10-31T16:24:52.201Z,13.00
2022-10-31T16:27:29.623Z,13.23
2022-10-31T16:30:02.547Z,12.48
2022-10-31T16:32:55.477Z,14.70
2022-10-31T16:35:38.327Z,12.07
2022-10-31T16:38:06.506Z,14.70
2022-10-31T16:40:34.141Z,13.45
2022-10-31T16:43:02.496Z,14.30
2022-10-31T16:45:33.803Z,12.32
2022-10-31T16:48:12.560Z,11.18
2022-10-31T16:50:39.591Z,14.32
2022-10-31T16:53:14.861Z,13.63
2022-10-31T16:56:04.208Z,14.65
2022-10-31T16:58:36.111Z,13.75
2022-10-31T17:01:06.263Z,12.50
2022-10-31T17:03:33.344Z,12.03
2022-10-31T17:06:00.289Z,13.20
2022-10-31T17:08:27.416Z,13.80
2022-10-31T17:10:57.267Z,12.85
2022-10-31T17:13:31.708Z,10.90
2022-10-31T17:16:01.583Z,12.73
2022-10-31T17:18:29.007Z,19.67
2022-10-31T17:21:01.731Z,11.40
2022-10-31T17:23:29.332Z,12.13
2022-10-31T17:25:56.892Z,15.70
2022-10-31T17:28:25.093Z,13.80
2022-10-31T17:30:53.945Z,12.98
2022-10-31T17:33:21.890Z,12.40
2022-10-31T17:35:49.641Z,16.23
2022-10-31T17:38:16.768Z,10.85
2022-10-31T17:40:43.896Z,14.27
2022-10-31T17:43:12.341Z,13.95
2022-10-31T17:45:41.860Z,13.00
2022-10-31T17:48:12.671Z,13.05
2022-10-31T17:50:39.723Z,11.90
2022-10-31T17:53:06.745Z,13.88
2022-10-31T17:55:37.015Z,15.13
2022-10-31T17:58:04.981Z,15.35
2022-10-31T18:00:32.091Z,11.75
2022-10-31T18:02:59.406Z,12.88
2022-10-31T18:05:26.731Z,13.40
2022-10-31T18:07:53.828Z,14.25
2022-10-31T18:10:20.958Z,12.05
2022-10-31T18:12:48.811Z,11.48
2022-10-31T18:15:17.204Z,9.75
2022-10-31T18:17:45.702Z,12.93
2022-10-31T18:20:12.962Z,13.05
2022-10-31T18:22:39.973Z,13.15
2022-10-31T18:25:07.426Z,11.47
2022-10-31T18:27:34.380Z,10.38
2022-10-31T18:30:01.521Z,10.20
2022-10-31T18:32:28.601Z,10.48
2022-10-31T18:34:55.642Z,10.47
2022-10-31T18:37:22.571Z,11.77
2022-10-31T18:39:49.617Z,13.35
2022-10-31T18:42:16.547Z,7.87
2022-10-31T18:44:43.473Z,10.55
2022-10-31T18:47:10.804Z,9.73
2022-10-31T18:49:37.773Z,9.85
2022-10-31T18:52:05.201Z,12.65
2022-10-31T18:54:32.233Z,12.43
2022-10-31T18:56:59.162Z,12.68
2022-10-31T18:59:26.207Z,10.87
2022-10-31T19:01:53.265Z,9.40
2022-10-31T19:04:20.312Z,11.73
2022-10-31T19:06:47.286Z,11.18
2022-10-31T19:09:14.319Z,10.82
2022-10-31T19:11:41.282Z,11.23
2022-10-31T19:14:08.515Z,8.57
2022-10-31T19:16:36.646Z,10.75
2022-10-31T19:19:03.654Z,9.07
2022-10-31T19:21:32.290Z,12.35
2022-10-31T19:24:01.744Z,9.90
2022-10-31T19:26:29.265Z,7.57
2022-10-31T19:28:56.817Z,8.52
2022-10-31T19:31:24.989Z,7.95
2022-10-31T19:33:52.208Z,8.10
2022-10-31T19:36:20.544Z,11.88
2022-10-31T19:38:50.549Z,8.15
2022-10-31T19:41:27.291Z,14.23
2022-10-31T19:43:55.862Z,9.65
2022-10-31T19:49:12.022Z,10.55
2022-10-31T19:51:39.080Z,6.68
2022-10-31T19:54:06.287Z,12.10
2022-10-31T19:56:33.369Z,9.88
2022-10-31T19:59:00.398Z,11.93
2022-10-31T20:01:27.592Z,9.20
2022-10-31T20:03:54.701Z,8.20
2022-10-31T20:06:34.918Z,8.73
2022-10-31T20:09:08.061Z,7.97
2022-10-31T20:11:38.019Z,8.13
2022-10-31T20:14:06.515Z,8.13
2022-10-31T20:16:33.982Z,9.03
2022-10-31T20:19:01.030Z,8.85
2022-10-31T20:21:30.949Z,8.57
2022-10-31T20:24:00.662Z,7.88
2022-10-31T20:26:29.585Z,6.57
2022-10-31T20:28:58.563Z,7.90
2022-10-31T20:31:31.135Z,7.90
2022-10-31T20:33:58.382Z,7.57
2022-10-31T20:36:26.159Z,8.05
2022-10-31T20:38:53.422Z,9.02
2022-10-31T20:41:21.131Z,8.73
2022-10-31T20:43:48.341Z,6.82
2022-10-31T20:46:19.768Z,8.02
2022-10-31T20:48:46.966Z,7.05
2022-10-31T20:51:17.826Z,7.78
2022-10-31T20:53:45.415Z,6.78
2022-10-31T20:56:15.568Z,7.13
2022-10-31T20:58:43.804Z,7.67
2022-10-31T21:01:33.144Z,9.68
2022-10-31T21:04:00.273Z,9.80
2022-10-31T21:06:28.261Z,7.80
2022-10-31T21:08:56.667Z,7.90
2022-10-31T21:11:26.922Z,7.53
2022-10-31T21:13:54.702Z,6.63
2022-10-31T21:16:26.235Z,7.78
2022-10-31T21:18:54.191Z,7.85
2022-10-31T21:21:32.468Z,6.23
2022-10-31T21:24:08.732Z,7.00
2022-10-31T21:26:39.648Z,8.10
2022-10-31T21:29:07.857Z,9.13
2022-10-31T21:31:37.532Z,7.38
2022-10-31T21:34:04.753Z,7.35
2022-10-31T21:36:32.503Z,11.98
2022-10-31T21:38:59.534Z,12.00
2022-10-31T21:41:28.641Z,11.67
2022-10-31T21:43:55.811Z,10.85
2022-10-31T21:46:28.109Z,12.23
2022-10-31T21:48:55.805Z,7.00
2022-10-31T21:51:35.127Z,8.27
2022-10-31T21:54:21.030Z,10.07
2022-10-31T21:56:49.430Z,7.60
2022-10-31T21:59:16.376Z,9.25
2022-10-31T22:01:43.522Z,7.10
2022-10-31T22:04:11.059Z,7.43
2022-10-31T22:06:38.587Z,6.75
2022-10-31T22:09:09.144Z,9.23
2022-10-31T22:11:36.197Z,8.80
2022-10-31T22:14:04.536Z,7.78
2022-10-31T22:16:35.833Z,6.25
2022-10-31T22:19:05.722Z,7.13
2022-10-31T22:21:48.992Z,6.95
2022-10-31T22:24:17.805Z,6.47
2022-10-31T22:26:45.068Z,9.15
2022-10-31T22:29:15.858Z,6.85
2022-10-31T22:31:46.332Z,7.68
2022-10-31T22:34:15.284Z,10.10
2022-10-31T22:36:43.732Z,8.00
2022-10-31T22:39:13.509Z,8.27
2022-10-31T22:41:40.569Z,9.00
2022-10-31T22:44:07.768Z,6.30
2022-10-31T22:46:37.909Z,8.53
2022-10-31T22:49:11.350Z,9.82
2022-10-31T22:51:40.436Z,8.73
2022-10-31T22:54:17.214Z,6.65
2022-10-31T22:56:45.264Z,7.80
2022-10-31T22:59:15.180Z,7.95
2022-10-31T23:01:44.965Z,9.63
2022-10-31T23:04:13.129Z,8.77
2022-10-31T23:06:40.328Z,6.50
2022-10-31T23:09:08.643Z,6.88
2022-10-31T23:11:39.215Z,8.40
2022-10-31T23:14:15.702Z,7.00
2022-10-31T23:16:50.658Z,8.70
2022-10-31T23:19:22.518Z,7.53
2022-10-31T23:22:02.986Z,7.45
2022-10-31T23:24:33.191Z,7.88
2022-10-31T23:27:07.565Z,7.53
2022-10-31T23:29:48.852Z,6.07
2022-10-31T23:32:35.081Z,9.75
2022-10-31T23:35:06.080Z,8.45
2022-10-31T23:37:36.597Z,7.25
2022-10-31T23:40:05.018Z,7.53
2022-10-31T23:42:32.052Z,10.70
2022-10-31T23:44:59.060Z,11.85
2022-10-31T23:47:26.370Z,8.68
2022-10-31T23:49:53.381Z,8.80
2022-10-31T23:52:20.504Z,5.90
2022-10-31T23:54:47.727Z,6.43
2022-10-31T23:57:16.341Z,9.23
2022-10-31T23:59:43.715Z,6.95
